sensor_id;sensor_type;location;lat;lon;timestamp;P1;durP1;ratioP1;P2;durP2;ratioP2
13267;SDS011;6702;47.068;15.458;2023-05-20T00:01:04;7.77;;;6.60;;
13267;SDS011;6702;47.068;15.458;2023-05-20T00:04:07;7.40;;;6.83;;
13267;SDS011;6702;47.068;15.458;2023-05-20T00:07:12;7.30;;;6.30;;
13267;SDS011;6702;47.068;15.458;2023-05-20T00:10:15;7.67;;;6.93;;
13267;SDS011;6702;47.068;15.458;2023-05-20T00:13:18;5.93;;;5.47;;
13267;SDS011;6702;47.068;15.458;2023-05-20T00:16:23;7.93;;;7.20;;
13267;SDS011;6702;47.068;15.458;2023-05-20T00:19:26;7.03;;;6.53;;
13267;SDS011;6702;47.068;15.458;2023-05-20T00:22:31;7.47;;;6.87;;
13267;SDS011;6702;47.068;15.458;2023-05-20T00:25:34;7.23;;;6.57;;
13267;SDS011;6702;47.068;15.458;2023-05-20T00:28:37;7.93;;;7.30;;
13267;SDS011;6702;47.068;15.458;2023-05-20T00:31:40;8.03;;;6.97;;
13267;SDS011;6702;47.068;15.458;2023-05-20T00:34:44;9.57;;;6.50;;
13267;SDS011;6702;47.068;15.458;2023-05-20T00:37:58;7.20;;;6.67;;
13267;SDS011;6702;47.068;15.458;2023-05-20T00:41:01;7.43;;;6.73;;
13267;SDS011;6702;47.068;15.458;2023-05-20T00:44:04;7.17;;;6.53;;
13267;SDS011;6702;47.068;15.458;2023-05-20T00:47:07;7.20;;;6.50;;
13267;SDS011;6702;47.068;15.458;2023-05-20T00:50:10;6.63;;;6.00;;
13267;SDS011;6702;47.068;15.458;2023-05-20T00:53:16;7.27;;;6.57;;
13267;SDS011;6702;47.068;15.458;2023-05-20T00:56:19;7.47;;;6.77;;
13267;SDS011;6702;47.068;15.458;2023-05-20T00:59:23;6.90;;;6.33;;
13267;SDS011;6702;47.068;15.458;2023-05-20T01:02:27;7.87;;;6.97;;
13267;SDS011;6702;47.068;15.458;2023-05-20T01:05:31;7.80;;;7.00;;
13267;SDS011;6702;47.068;15.458;2023-05-20T01:08:36;7.57;;;6.87;;
13267;SDS011;6702;47.068;15.458;2023-05-20T01:11:40;7.50;;;6.73;;
13267;SDS011;6702;47.068;15.458;2023-05-20T01:14:50;7.43;;;6.83;;
13267;SDS011;6702;47.068;15.458;2023-05-20T01:18:00;7.73;;;7.03;;
13267;SDS011;6702;47.068;15.458;2023-05-20T01:21:07;8.70;;;8.00;;
13267;SDS011;6702;47.068;15.458;2023-05-20T01:24:13;7.27;;;6.67;;
13267;SDS011;6702;47.068;15.458;2023-05-20T01:27:16;7.83;;;7.17;;
13267;SDS011;6702;47.068;15.458;2023-05-20T01:30:21;15.43;;;6.60;;
13267;SDS011;6702;47.068;15.458;2023-05-20T01:33:25;7.90;;;7.10;;
13267;SDS011;6702;47.068;15.458;2023-05-20T01:36:31;6.90;;;6.40;;
13267;SDS011;6702;47.068;15.458;2023-05-20T01:39:38;7.60;;;6.87;;
13267;SDS011;6702;47.068;15.458;2023-05-20T01:42:45;8.13;;;7.43;;
13267;SDS011;6702;47.068;15.458;2023-05-20T01:45:53;8.20;;;7.33;;
13267;SDS011;6702;47.068;15.458;2023-05-20T01:48:57;7.23;;;6.63;;
13267;SDS011;6702;47.068;15.458;2023-05-20T01:52:00;7.30;;;6.70;;
13267;SDS011;6702;47.068;15.458;2023-05-20T01:55:05;6.40;;;5.80;;
13267;SDS011;6702;47.068;15.458;2023-05-20T01:58:08;7.57;;;6.87;;
13267;SDS011;6702;47.068;15.458;2023-05-20T02:01:12;8.13;;;7.53;;
13267;SDS011;6702;47.068;15.458;2023-05-20T02:04:15;6.83;;;6.23;;
13267;SDS011;6702;47.068;15.458;2023-05-20T02:07:19;7.30;;;6.70;;
13267;SDS011;6702;47.068;15.458;2023-05-20T02:10:24;7.60;;;6.80;;
13267;SDS011;6702;47.068;15.458;2023-05-20T02:13:27;7.90;;;7.30;;
13267;SDS011;6702;47.068;15.458;2023-05-20T02:16:30;7.20;;;6.70;;
13267;SDS011;6702;47.068;15.458;2023-05-20T02:19:33;7.20;;;6.60;;
13267;SDS011;6702;47.068;15.458;2023-05-20T02:22:37;7.93;;;7.10;;
13267;SDS011;6702;47.068;15.458;2023-05-20T02:25:41;7.40;;;6.77;;
13267;SDS011;6702;47.068;15.458;2023-05-20T02:28:45;7.77;;;7.07;;
13267;SDS011;6702;47.068;15.458;2023-05-20T02:31:51;7.30;;;6.60;;
13267;SDS011;6702;47.068;15.458;2023-05-20T02:34:54;7.43;;;6.83;;
13267;SDS011;6702;47.068;15.458;2023-05-20T02:37:57;8.27;;;7.47;;
13267;SDS011;6702;47.068;15.458;2023-05-20T02:41:02;8.37;;;7.57;;
13267;SDS011;6702;47.068;15.458;2023-05-20T02:44:05;8.80;;;8.00;;
13267;SDS011;6702;47.068;15.458;2023-05-20T02:47:09;9.43;;;8.20;;
13267;SDS011;6702;47.068;15.458;2023-05-20T02:50:12;8.60;;;7.90;;
13267;SDS011;6702;47.068;15.458;2023-05-20T02:53:15;7.43;;;6.73;;
13267;SDS011;6702;47.068;15.458;2023-05-20T02:56:20;8.50;;;7.70;;
13267;SDS011;6702;47.068;15.458;2023-05-20T02:59:23;9.07;;;8.17;;
13267;SDS011;6702;47.068;15.458;2023-05-20T03:02:26;9.33;;;8.50;;
13267;SDS011;6702;47.068;15.458;2023-05-20T03:05:29;8.50;;;7.80;;
13267;SDS011;6702;47.068;15.458;2023-05-20T03:08:33;9.43;;;8.03;;
13267;SDS011;6702;47.068;15.458;2023-05-20T03:11:38;9.83;;;8.83;;
13267;SDS011;6702;47.068;15.458;2023-05-20T03:14:41;8.13;;;7.43;;
13267;SDS011;6702;47.068;15.458;2023-05-20T03:17:44;9.10;;;8.20;;
13267;SDS011;6702;47.068;15.458;2023-05-20T03:20:47;9.00;;;7.27;;
13267;SDS011;6702;47.068;15.458;2023-05-20T03:23:50;8.67;;;7.97;;
13267;SDS011;6702;47.068;15.458;2023-05-20T03:26:55;9.00;;;8.10;;
13267;SDS011;6702;47.068;15.458;2023-05-20T03:29:58;7.90;;;7.20;;
13267;SDS011;6702;47.068;15.458;2023-05-20T03:33:01;8.50;;;7.70;;
13267;SDS011;6702;47.068;15.458;2023-05-20T03:36:06;10.20;;;8.90;;
13267;SDS011;6702;47.068;15.458;2023-05-20T03:39:09;9.87;;;8.27;;
13267;SDS011;6702;47.068;15.458;2023-05-20T03:42:14;8.37;;;7.40;;
13267;SDS011;6702;47.068;15.458;2023-05-20T03:45:17;8.77;;;7.97;;
13267;SDS011;6702;47.068;15.458;2023-05-20T03:48:20;7.43;;;6.77;;
13267;SDS011;6702;47.068;15.458;2023-05-20T03:51:23;8.10;;;7.40;;
13267;SDS011;6702;47.068;15.458;2023-05-20T03:54:27;7.90;;;7.30;;
13267;SDS011;6702;47.068;15.458;2023-05-20T03:57:33;9.87;;;7.77;;
13267;SDS011;6702;47.068;15.458;2023-05-20T04:00:36;7.97;;;7.27;;
13267;SDS011;6702;47.068;15.458;2023-05-20T04:03:40;8.73;;;8.03;;
13267;SDS011;6702;47.068;15.458;2023-05-20T04:06:44;7.93;;;7.13;;
13267;SDS011;6702;47.068;15.458;2023-05-20T04:09:47;8.67;;;7.83;;
13267;SDS011;6702;47.068;15.458;2023-05-20T04:12:52;8.63;;;7.83;;
13267;SDS011;6702;47.068;15.458;2023-05-20T04:15:55;7.97;;;7.27;;
13267;SDS011;6702;47.068;15.458;2023-05-20T04:18:58;7.77;;;7.23;;
13267;SDS011;6702;47.068;15.458;2023-05-20T04:22:03;8.83;;;7.97;;
13267;SDS011;6702;47.068;15.458;2023-05-20T04:25:06;8.50;;;7.80;;
13267;SDS011;6702;47.068;15.458;2023-05-20T04:28:11;8.17;;;7.43;;
13267;SDS011;6702;47.068;15.458;2023-05-20T04:31:16;7.67;;;6.97;;
13267;SDS011;6702;47.068;15.458;2023-05-20T04:34:21;7.10;;;6.40;;
13267;SDS011;6702;47.068;15.458;2023-05-20T04:37:27;7.07;;;6.47;;
13267;SDS011;6702;47.068;15.458;2023-05-20T04:40:32;7.30;;;6.60;;
13267;SDS011;6702;47.068;15.458;2023-05-20T04:43:37;7.40;;;6.70;;
13267;SDS011;6702;47.068;15.458;2023-05-20T04:46:40;9.00;;;8.03;;
13267;SDS011;6702;47.068;15.458;2023-05-20T04:49:45;8.33;;;6.60;;
13267;SDS011;6702;47.068;15.458;2023-05-20T04:52:48;8.70;;;7.40;;
13267;SDS011;6702;47.068;15.458;2023-05-20T04:55:53;7.93;;;7.07;;
13267;SDS011;6702;47.068;15.458;2023-05-20T04:58:58;7.10;;;6.53;;
13267;SDS011;6702;47.068;15.458;2023-05-20T05:02:02;7.70;;;7.10;;
13267;SDS011;6702;47.068;15.458;2023-05-20T05:05:06;8.03;;;7.33;;
13267;SDS011;6702;47.068;15.458;2023-05-20T05:08:09;7.57;;;6.90;;
13267;SDS011;6702;47.068;15.458;2023-05-20T05:11:12;10.93;;;7.37;;
13267;SDS011;6702;47.068;15.458;2023-05-20T05:14:17;7.67;;;7.07;;
13267;SDS011;6702;47.068;15.458;2023-05-20T05:17:20;8.00;;;7.30;;
13267;SDS011;6702;47.068;15.458;2023-05-20T05:20:23;7.30;;;6.50;;
13267;SDS011;6702;47.068;15.458;2023-05-20T05:23:26;7.73;;;6.30;;
13267;SDS011;6702;47.068;15.458;2023-05-20T05:26:30;7.63;;;6.93;;
13267;SDS011;6702;47.068;15.458;2023-05-20T05:29:34;8.47;;;7.00;;
13267;SDS011;6702;47.068;15.458;2023-05-20T05:32:37;10.57;;;7.37;;
13267;SDS011;6702;47.068;15.458;2023-05-20T05:35:43;7.30;;;6.70;;
13267;SDS011;6702;47.068;15.458;2023-05-20T05:38:47;8.03;;;7.33;;
13267;SDS011;6702;47.068;15.458;2023-05-20T05:41:50;7.33;;;6.63;;
13267;SDS011;6702;47.068;15.458;2023-05-20T05:44:56;6.93;;;6.33;;
13267;SDS011;6702;47.068;15.458;2023-05-20T05:47:59;7.10;;;6.50;;
13267;SDS011;6702;47.068;15.458;2023-05-20T05:51:03;8.40;;;7.20;;
13267;SDS011;6702;47.068;15.458;2023-05-20T05:54:06;8.43;;;6.90;;
13267;SDS011;6702;47.068;15.458;2023-05-20T05:57:09;9.40;;;6.50;;
13267;SDS011;6702;47.068;15.458;2023-05-20T06:00:14;8.10;;;6.43;;
13267;SDS011;6702;47.068;15.458;2023-05-20T06:03:18;8.10;;;7.50;;
13267;SDS011;6702;47.068;15.458;2023-05-20T06:06:21;7.73;;;7.13;;
13267;SDS011;6702;47.068;15.458;2023-05-20T06:09:24;6.93;;;6.33;;
13267;SDS011;6702;47.068;15.458;2023-05-20T06:12:28;7.73;;;7.10;;
13267;SDS011;6702;47.068;15.458;2023-05-20T06:15:32;8.43;;;6.77;;
13267;SDS011;6702;47.068;15.458;2023-05-20T06:18:37;6.40;;;5.80;;
13267;SDS011;6702;47.068;15.458;2023-05-20T06:21:40;6.67;;;6.10;;
13267;SDS011;6702;47.068;15.458;2023-05-20T06:24:43;8.33;;;7.10;;
13267;SDS011;6702;47.068;15.458;2023-05-20T06:27:46;9.27;;;6.37;;
13267;SDS011;6702;47.068;15.458;2023-05-20T06:30:51;6.77;;;6.07;;
13267;SDS011;6702;47.068;15.458;2023-05-20T06:33:56;7.23;;;6.43;;
13267;SDS011;6702;47.068;15.458;2023-05-20T06:36:59;6.37;;;5.97;;
13267;SDS011;6702;47.068;15.458;2023-05-20T06:40:03;7.30;;;6.70;;
13267;SDS011;6702;47.068;15.458;2023-05-20T06:43:07;7.87;;;7.03;;
13267;SDS011;6702;47.068;15.458;2023-05-20T06:46:11;6.87;;;6.37;;
13267;SDS011;6702;47.068;15.458;2023-05-20T06:49:14;6.33;;;5.73;;
13267;SDS011;6702;47.068;15.458;2023-05-20T06:52:18;7.80;;;7.10;;
13267;SDS011;6702;47.068;15.458;2023-05-20T06:55:21;7.37;;;6.70;;
13267;SDS011;6702;47.068;15.458;2023-05-20T06:58:24;7.23;;;6.60;;
13267;SDS011;6702;47.068;15.458;2023-05-20T07:01:29;6.13;;;5.63;;
13267;SDS011;6702;47.068;15.458;2023-05-20T07:04:32;10.67;;;6.87;;
13267;SDS011;6702;47.068;15.458;2023-05-20T07:07:35;6.80;;;6.17;;
13267;SDS011;6702;47.068;15.458;2023-05-20T07:10:38;6.40;;;5.80;;
13267;SDS011;6702;47.068;15.458;2023-05-20T07:13:41;6.40;;;5.80;;
13267;SDS011;6702;47.068;15.458;2023-05-20T07:16:46;6.20;;;5.70;;
13267;SDS011;6702;47.068;15.458;2023-05-20T07:19:49;6.90;;;6.30;;
13267;SDS011;6702;47.068;15.458;2023-05-20T07:22:52;6.20;;;5.70;;
13267;SDS011;6702;47.068;15.458;2023-05-20T07:25:55;4.45;;;4.05;;
13267;SDS011;6702;47.068;15.458;2023-05-20T07:28:59;6.53;;;6.03;;
13267;SDS011;6702;47.068;15.458;2023-05-20T07:32:04;6.85;;;6.25;;
13267;SDS011;6702;47.068;15.458;2023-05-20T07:35:08;6.35;;;5.80;;
13267;SDS011;6702;47.068;15.458;2023-05-20T07:38:11;7.00;;;6.40;;
13267;SDS011;6702;47.068;15.458;2023-05-20T07:41:14;6.70;;;6.20;;
13267;SDS011;6702;47.068;15.458;2023-05-20T07:44:17;7.30;;;6.70;;
13267;SDS011;6702;47.068;15.458;2023-05-20T07:47:23;7.40;;;6.70;;
13267;SDS011;6702;47.068;15.458;2023-05-20T07:50:27;7.90;;;7.20;;
13267;SDS011;6702;47.068;15.458;2023-05-20T07:53:30;8.23;;;7.60;;
13267;SDS011;6702;47.068;15.458;2023-05-20T07:56:33;8.37;;;7.63;;
13267;SDS011;6702;47.068;15.458;2023-05-20T07:59:37;7.17;;;6.67;;
13267;SDS011;6702;47.068;15.458;2023-05-20T08:02:41;8.10;;;7.30;;
13267;SDS011;6702;47.068;15.458;2023-05-20T08:05:45;7.73;;;7.13;;
13267;SDS011;6702;47.068;15.458;2023-05-20T08:08:48;8.03;;;7.43;;
13267;SDS011;6702;47.068;15.458;2023-05-20T08:11:51;8.23;;;7.53;;
13267;SDS011;6702;47.068;15.458;2023-05-20T08:14:54;8.30;;;7.70;;
13267;SDS011;6702;47.068;15.458;2023-05-20T08:17:59;8.57;;;7.83;;
13267;SDS011;6702;47.068;15.458;2023-05-20T08:21:03;8.23;;;7.43;;
13267;SDS011;6702;47.068;15.458;2023-05-20T08:24:08;8.50;;;7.63;;
13267;SDS011;6702;47.068;15.458;2023-05-20T08:27:11;7.73;;;7.03;;
13267;SDS011;6702;47.068;15.458;2023-05-20T08:30:14;7.23;;;6.63;;
13267;SDS011;6702;47.068;15.458;2023-05-20T08:33:19;8.30;;;7.70;;
13267;SDS011;6702;47.068;15.458;2023-05-20T08:36:22;9.07;;;8.30;;
13267;SDS011;6702;47.068;15.458;2023-05-20T08:39:27;9.30;;;8.70;;
13267;SDS011;6702;47.068;15.458;2023-05-20T08:42:30;7.00;;;6.40;;
13267;SDS011;6702;47.068;15.458;2023-05-20T08:45:36;7.30;;;6.70;;
13267;SDS011;6702;47.068;15.458;2023-05-20T08:48:41;8.20;;;7.60;;
13267;SDS011;6702;47.068;15.458;2023-05-20T08:51:44;8.33;;;7.53;;
13267;SDS011;6702;47.068;15.458;2023-05-20T08:54:48;8.57;;;7.30;;
13267;SDS011;6702;47.068;15.458;2023-05-20T08:57:53;8.80;;;8.07;;
13267;SDS011;6702;47.068;15.458;2023-05-20T09:00:57;8.40;;;7.80;;
13267;SDS011;6702;47.068;15.458;2023-05-20T09:04:02;8.87;;;8.10;;
13267;SDS011;6702;47.068;15.458;2023-05-20T09:07:06;9.07;;;8.27;;
13267;SDS011;6702;47.068;15.458;2023-05-20T09:10:09;8.40;;;7.60;;
13267;SDS011;6702;47.068;15.458;2023-05-20T09:13:12;7.47;;;6.90;;
13267;SDS011;6702;47.068;15.458;2023-05-20T09:16:18;8.53;;;7.83;;
13267;SDS011;6702;47.068;15.458;2023-05-20T09:19:23;7.20;;;6.60;;
13267;SDS011;6702;47.068;15.458;2023-05-20T09:22:29;8.43;;;7.67;;
13267;SDS011;6702;47.068;15.458;2023-05-20T09:25:33;11.63;;;8.60;;
13267;SDS011;6702;47.068;15.458;2023-05-20T09:28:37;8.37;;;7.67;;
13267;SDS011;6702;47.068;15.458;2023-05-20T09:31:41;7.77;;;7.07;;
13267;SDS011;6702;47.068;15.458;2023-05-20T09:34:46;8.03;;;7.10;;
13267;SDS011;6702;47.068;15.458;2023-05-20T09:37:50;8.97;;;8.13;;
13267;SDS011;6702;47.068;15.458;2023-05-20T09:40:55;8.50;;;7.90;;
13267;SDS011;6702;47.068;15.458;2023-05-20T09:44:01;9.10;;;8.23;;
13267;SDS011;6702;47.068;15.458;2023-05-20T09:47:07;7.90;;;7.23;;
13267;SDS011;6702;47.068;15.458;2023-05-20T09:50:12;7.77;;;7.07;;
13267;SDS011;6702;47.068;15.458;2023-05-20T09:53:17;7.90;;;7.20;;
13267;SDS011;6702;47.068;15.458;2023-05-20T09:56:21;8.97;;;8.17;;
13267;SDS011;6702;47.068;15.458;2023-05-20T09:59:26;9.00;;;8.10;;
13267;SDS011;6702;47.068;15.458;2023-05-20T10:02:33;8.00;;;7.40;;
13267;SDS011;6702;47.068;15.458;2023-05-20T10:05:39;7.23;;;6.63;;
13267;SDS011;6702;47.068;15.458;2023-05-20T10:08:51;9.27;;;8.37;;
13267;SDS011;6702;47.068;15.458;2023-05-20T10:12:09;8.20;;;7.40;;
13267;SDS011;6702;47.068;15.458;2023-05-20T10:15:22;8.03;;;7.43;;
13267;SDS011;6702;47.068;15.458;2023-05-20T10:18:34;7.60;;;6.90;;
13267;SDS011;6702;47.068;15.458;2023-05-20T10:21:56;7.47;;;6.87;;
13267;SDS011;6702;47.068;15.458;2023-05-20T10:25:03;7.60;;;7.00;;
13267;SDS011;6702;47.068;15.458;2023-05-20T10:28:08;8.10;;;7.50;;
13267;SDS011;6702;47.068;15.458;2023-05-20T10:31:15;8.03;;;7.43;;
13267;SDS011;6702;47.068;15.458;2023-05-20T10:34:20;9.10;;;8.27;;
13267;SDS011;6702;47.068;15.458;2023-05-20T10:37:25;8.17;;;7.37;;
13267;SDS011;6702;47.068;15.458;2023-05-20T10:40:29;8.07;;;7.37;;
13267;SDS011;6702;47.068;15.458;2023-05-20T10:43:33;8.33;;;7.60;;
13267;SDS011;6702;47.068;15.458;2023-05-20T10:46:36;7.23;;;6.63;;
13267;SDS011;6702;47.068;15.458;2023-05-20T10:50:00;8.60;;;7.80;;
13267;SDS011;6702;47.068;15.458;2023-05-20T10:53:10;8.70;;;7.83;;
13267;SDS011;6702;47.068;15.458;2023-05-20T10:56:33;11.57;;;10.40;;
13267;SDS011;6702;47.068;15.458;2023-05-20T10:59:36;10.43;;;9.43;;
13267;SDS011;6702;47.068;15.458;2023-05-20T11:02:40;11.70;;;10.60;;
13267;SDS011;6702;47.068;15.458;2023-05-20T11:05:43;8.90;;;8.10;;
13267;SDS011;6702;47.068;15.458;2023-05-20T11:08:49;9.00;;;8.20;;
13267;SDS011;6702;47.068;15.458;2023-05-20T11:11:52;8.67;;;7.97;;
13267;SDS011;6702;47.068;15.458;2023-05-20T11:14:56;9.10;;;8.40;;
13267;SDS011;6702;47.068;15.458;2023-05-20T11:17:59;9.70;;;8.07;;
13267;SDS011;6702;47.068;15.458;2023-05-20T11:21:04;9.10;;;8.43;;
13267;SDS011;6702;47.068;15.458;2023-05-20T11:24:08;8.20;;;7.60;;
13267;SDS011;6702;47.068;15.458;2023-05-20T11:27:12;8.43;;;7.63;;
13267;SDS011;6702;47.068;15.458;2023-05-20T11:30:15;8.80;;;7.87;;
13267;SDS011;6702;47.068;15.458;2023-05-20T11:33:20;8.57;;;7.97;;
13267;SDS011;6702;47.068;15.458;2023-05-20T11:36:28;8.90;;;8.10;;
13267;SDS011;6702;47.068;15.458;2023-05-20T11:39:32;9.63;;;8.73;;
13267;SDS011;6702;47.068;15.458;2023-05-20T11:42:35;8.40;;;7.60;;
13267;SDS011;6702;47.068;15.458;2023-05-20T11:45:39;9.10;;;8.40;;
13267;SDS011;6702;47.068;15.458;2023-05-20T11:48:49;10.23;;;8.90;;
13267;SDS011;6702;47.068;15.458;2023-05-20T11:51:53;9.80;;;8.67;;
13267;SDS011;6702;47.068;15.458;2023-05-20T11:54:59;9.63;;;8.63;;
13267;SDS011;6702;47.068;15.458;2023-05-20T11:58:02;8.93;;;8.33;;
13267;SDS011;6702;47.068;15.458;2023-05-20T12:01:05;9.87;;;8.87;;
13267;SDS011;6702;47.068;15.458;2023-05-20T12:04:22;9.43;;;8.53;;
13267;SDS011;6702;47.068;15.458;2023-05-20T12:07:25;10.13;;;9.23;;
13267;SDS011;6702;47.068;15.458;2023-05-20T12:10:30;9.27;;;8.43;;
13267;SDS011;6702;47.068;15.458;2023-05-20T12:13:33;9.23;;;8.43;;
13267;SDS011;6702;47.068;15.458;2023-05-20T12:16:36;9.90;;;9.00;;
13267;SDS011;6702;47.068;15.458;2023-05-20T12:19:40;8.70;;;7.90;;
13267;SDS011;6702;47.068;15.458;2023-05-20T12:22:45;9.67;;;8.87;;
13267;SDS011;6702;47.068;15.458;2023-05-20T12:25:51;8.90;;;8.10;;
13267;SDS011;6702;47.068;15.458;2023-05-20T12:28:54;9.67;;;8.97;;
13267;SDS011;6702;47.068;15.458;2023-05-20T12:31:58;8.50;;;7.60;;
13267;SDS011;6702;47.068;15.458;2023-05-20T12:35:01;8.80;;;8.10;;
13267;SDS011;6702;47.068;15.458;2023-05-20T12:38:05;10.23;;;9.43;;
13267;SDS011;6702;47.068;15.458;2023-05-20T12:41:10;9.10;;;8.40;;
13267;SDS011;6702;47.068;15.458;2023-05-20T12:44:13;9.10;;;8.40;;
13267;SDS011;6702;47.068;15.458;2023-05-20T12:47:16;9.27;;;8.47;;
13267;SDS011;6702;47.068;15.458;2023-05-20T12:50:19;8.17;;;7.47;;
13267;SDS011;6702;47.068;15.458;2023-05-20T12:53:23;8.60;;;7.90;;
13267;SDS011;6702;47.068;15.458;2023-05-20T12:56:27;8.93;;;8.23;;
13267;SDS011;6702;47.068;15.458;2023-05-20T12:59:31;11.13;;;10.07;;
13267;SDS011;6702;47.068;15.458;2023-05-20T13:02:34;9.80;;;8.80;;
13267;SDS011;6702;47.068;15.458;2023-05-20T13:05:40;8.43;;;7.73;;
13267;SDS011;6702;47.068;15.458;2023-05-20T13:08:43;9.23;;;8.43;;
13267;SDS011;6702;47.068;15.458;2023-05-20T13:11:48;10.47;;;8.93;;
13267;SDS011;6702;47.068;15.458;2023-05-20T13:14:51;9.10;;;8.40;;
13267;SDS011;6702;47.068;15.458;2023-05-20T13:17:57;13.60;;;12.50;;
13267;SDS011;6702;47.068;15.458;2023-05-20T13:21:02;8.97;;;8.27;;
13267;SDS011;6702;47.068;15.458;2023-05-20T13:24:05;8.93;;;8.23;;
13267;SDS011;6702;47.068;15.458;2023-05-20T13:27:10;8.87;;;8.17;;
13267;SDS011;6702;47.068;15.458;2023-05-20T13:30:14;9.50;;;8.60;;
13267;SDS011;6702;47.068;15.458;2023-05-20T13:33:17;9.00;;;8.30;;
13267;SDS011;6702;47.068;15.458;2023-05-20T13:36:20;8.50;;;7.80;;
13267;SDS011;6702;47.068;15.458;2023-05-20T13:39:23;10.97;;;8.77;;
13267;SDS011;6702;47.068;15.458;2023-05-20T13:42:29;9.03;;;8.20;;
13267;SDS011;6702;47.068;15.458;2023-05-20T13:45:32;8.57;;;7.77;;
13267;SDS011;6702;47.068;15.458;2023-05-20T13:48:35;8.93;;;8.13;;
13267;SDS011;6702;47.068;15.458;2023-05-20T13:51:38;9.83;;;8.90;;
13267;SDS011;6702;47.068;15.458;2023-05-20T13:54:41;9.33;;;8.50;;
13267;SDS011;6702;47.068;15.458;2023-05-20T13:57:48;9.50;;;8.60;;
13267;SDS011;6702;47.068;15.458;2023-05-20T14:00:53;9.40;;;8.60;;
13267;SDS011;6702;47.068;15.458;2023-05-20T14:03:57;10.43;;;9.43;;
13267;SDS011;6702;47.068;15.458;2023-05-20T14:07:00;8.90;;;8.20;;
13267;SDS011;6702;47.068;15.458;2023-05-20T14:10:04;9.87;;;8.93;;
13267;SDS011;6702;47.068;15.458;2023-05-20T14:13:10;10.07;;;9.17;;
13267;SDS011;6702;47.068;15.458;2023-05-20T14:16:14;9.37;;;8.60;;
13267;SDS011;6702;47.068;15.458;2023-05-20T14:19:17;8.80;;;8.10;;
13267;SDS011;6702;47.068;15.458;2023-05-20T14:22:20;9.20;;;8.40;;
13267;SDS011;6702;47.068;15.458;2023-05-20T14:25:23;9.53;;;8.77;;
13267;SDS011;6702;47.068;15.458;2023-05-20T14:28:29;9.40;;;8.60;;
13267;SDS011;6702;47.068;15.458;2023-05-20T14:31:32;8.83;;;8.13;;
13267;SDS011;6702;47.068;15.458;2023-05-20T14:34:35;8.67;;;7.87;;
13267;SDS011;6702;47.068;15.458;2023-05-20T14:37:39;9.03;;;8.23;;
13267;SDS011;6702;47.068;15.458;2023-05-20T14:40:42;8.30;;;7.60;;
13267;SDS011;6702;47.068;15.458;2023-05-20T14:43:46;8.90;;;8.00;;
13267;SDS011;6702;47.068;15.458;2023-05-20T14:46:50;9.63;;;8.53;;
13267;SDS011;6702;47.068;15.458;2023-05-20T14:49:53;8.00;;;7.40;;
13267;SDS011;6702;47.068;15.458;2023-05-20T14:52:57;9.77;;;8.87;;
13267;SDS011;6702;47.068;15.458;2023-05-20T14:56:00;9.37;;;8.33;;
13267;SDS011;6702;47.068;15.458;2023-05-20T14:59:05;8.17;;;7.40;;
13267;SDS011;6702;47.068;15.458;2023-05-20T15:02:08;9.13;;;8.40;;
13267;SDS011;6702;47.068;15.458;2023-05-20T15:05:15;9.80;;;9.00;;
13267;SDS011;6702;47.068;15.458;2023-05-20T15:08:19;9.33;;;8.43;;
13267;SDS011;6702;47.068;15.458;2023-05-20T15:11:22;9.23;;;8.33;;
13267;SDS011;6702;47.068;15.458;2023-05-20T15:14:26;9.23;;;8.43;;
13267;SDS011;6702;47.068;15.458;2023-05-20T15:17:30;9.20;;;8.50;;
13267;SDS011;6702;47.068;15.458;2023-05-20T15:20:33;10.00;;;8.80;;
13267;SDS011;6702;47.068;15.458;2023-05-20T15:23:36;9.40;;;8.50;;
13267;SDS011;6702;47.068;15.458;2023-05-20T15:26:39;10.30;;;8.90;;
13267;SDS011;6702;47.068;15.458;2023-05-20T15:29:44;9.90;;;9.10;;
13267;SDS011;6702;47.068;15.458;2023-05-20T15:32:48;11.27;;;9.30;;
13267;SDS011;6702;47.068;15.458;2023-05-20T15:35:52;10.20;;;9.40;;
13267;SDS011;6702;47.068;15.458;2023-05-20T15:38:55;9.43;;;8.47;;
13267;SDS011;6702;47.068;15.458;2023-05-20T15:41:58;10.93;;;9.70;;
13267;SDS011;6702;47.068;15.458;2023-05-20T15:45:05;9.90;;;9.00;;
13267;SDS011;6702;47.068;15.458;2023-05-20T15:48:08;9.90;;;8.97;;
13267;SDS011;6702;47.068;15.458;2023-05-20T15:51:12;9.30;;;8.40;;
13267;SDS011;6702;47.068;15.458;2023-05-20T15:54:16;10.00;;;9.10;;
13267;SDS011;6702;47.068;15.458;2023-05-20T15:57:20;9.80;;;9.00;;
13267;SDS011;6702;47.068;15.458;2023-05-20T16:00:25;8.73;;;7.93;;
13267;SDS011;6702;47.068;15.458;2023-05-20T16:03:28;9.10;;;8.20;;
13267;SDS011;6702;47.068;15.458;2023-05-20T16:06:32;10.77;;;9.33;;
13267;SDS011;6702;47.068;15.458;2023-05-20T16:09:36;9.50;;;8.60;;
13267;SDS011;6702;47.068;15.458;2023-05-20T16:12:39;15.83;;;9.90;;
13267;SDS011;6702;47.068;15.458;2023-05-20T16:15:43;10.33;;;9.47;;
13267;SDS011;6702;47.068;15.458;2023-05-20T16:18:47;8.70;;;8.00;;
13267;SDS011;6702;47.068;15.458;2023-05-20T16:21:50;9.43;;;8.73;;
13267;SDS011;6702;47.068;15.458;2023-05-20T16:24:53;8.80;;;8.00;;
13267;SDS011;6702;47.068;15.458;2023-05-20T16:27:56;9.43;;;8.57;;
13267;SDS011;6702;47.068;15.458;2023-05-20T16:31:02;9.33;;;8.53;;
13267;SDS011;6702;47.068;15.458;2023-05-20T16:34:06;10.27;;;9.50;;
13267;SDS011;6702;47.068;15.458;2023-05-20T16:37:10;10.97;;;9.97;;
13267;SDS011;6702;47.068;15.458;2023-05-20T16:40:13;10.90;;;10.00;;
13267;SDS011;6702;47.068;15.458;2023-05-20T16:43:16;9.47;;;8.77;;
13267;SDS011;6702;47.068;15.458;2023-05-20T16:46:21;15.13;;;9.87;;
13267;SDS011;6702;47.068;15.458;2023-05-20T16:49:24;10.63;;;9.63;;
13267;SDS011;6702;47.068;15.458;2023-05-20T16:52:27;11.43;;;10.30;;
13267;SDS011;6702;47.068;15.458;2023-05-20T16:55:31;11.27;;;10.30;;
13267;SDS011;6702;47.068;15.458;2023-05-20T16:58:34;10.37;;;9.57;;
13267;SDS011;6702;47.068;15.458;2023-05-20T17:01:38;10.00;;;9.20;;
13267;SDS011;6702;47.068;15.458;2023-05-20T17:04:42;13.80;;;10.13;;
13267;SDS011;6702;47.068;15.458;2023-05-20T17:07:45;10.23;;;9.23;;
13267;SDS011;6702;47.068;15.458;2023-05-20T17:10:50;9.27;;;8.13;;
13267;SDS011;6702;47.068;15.458;2023-05-20T17:13:54;9.10;;;8.27;;
13267;SDS011;6702;47.068;15.458;2023-05-20T17:16:59;10.63;;;9.53;;
13267;SDS011;6702;47.068;15.458;2023-05-20T17:20:02;10.37;;;9.37;;
13267;SDS011;6702;47.068;15.458;2023-05-20T17:23:06;10.57;;;9.50;;
13267;SDS011;6702;47.068;15.458;2023-05-20T17:26:10;11.50;;;8.33;;
13267;SDS011;6702;47.068;15.458;2023-05-20T17:29:13;8.60;;;7.80;;
13267;SDS011;6702;47.068;15.458;2023-05-20T17:32:17;8.40;;;7.60;;
13267;SDS011;6702;47.068;15.458;2023-05-20T17:35:21;8.47;;;7.70;;
13267;SDS011;6702;47.068;15.458;2023-05-20T17:38:26;11.50;;;7.97;;
13267;SDS011;6702;47.068;15.458;2023-05-20T17:41:29;9.10;;;7.80;;
13267;SDS011;6702;47.068;15.458;2023-05-20T17:44:32;7.93;;;7.20;;
13267;SDS011;6702;47.068;15.458;2023-05-20T17:47:36;8.90;;;8.10;;
13267;SDS011;6702;47.068;15.458;2023-05-20T17:50:40;9.50;;;7.93;;
13267;SDS011;6702;47.068;15.458;2023-05-20T17:53:43;9.00;;;7.97;;
13267;SDS011;6702;47.068;15.458;2023-05-20T17:56:47;8.20;;;7.50;;
13267;SDS011;6702;47.068;15.458;2023-05-20T17:59:51;9.13;;;8.00;;
13267;SDS011;6702;47.068;15.458;2023-05-20T18:02:56;9.03;;;8.23;;
13267;SDS011;6702;47.068;15.458;2023-05-20T18:06:00;9.10;;;8.30;;
13267;SDS011;6702;47.068;15.458;2023-05-20T18:09:05;9.37;;;8.57;;
13267;SDS011;6702;47.068;15.458;2023-05-20T18:12:09;9.03;;;8.23;;
13267;SDS011;6702;47.068;15.458;2023-05-20T18:15:12;9.97;;;8.97;;
13267;SDS011;6702;47.068;15.458;2023-05-20T18:18:22;11.50;;;9.23;;
13267;SDS011;6702;47.068;15.458;2023-05-20T18:21:25;11.10;;;10.10;;
13267;SDS011;6702;47.068;15.458;2023-05-20T18:24:28;9.80;;;8.80;;
13267;SDS011;6702;47.068;15.458;2023-05-20T18:27:31;10.43;;;9.43;;